sensor_id;sensor_type;location;lat;lon;timestamp;temperature;humidity
3406;DHT22;10008;48.682;9.016;2023-05-21T00:01:40;15.80;99.90
3406;DHT22;10008;48.682;9.016;2023-05-21T00:04:06;15.70;99.90
3406;DHT22;10008;48.682;9.016;2023-05-21T00:06:35;15.80;99.90
3406;DHT22;10008;48.682;9.016;2023-05-21T00:09:02;15.80;99.90
3406;DHT22;10008;48.682;9.016;2023-05-21T00:11:28;15.70;99.90
3406;DHT22;10008;48.682;9.016;2023-05-21T00:13:54;15.70;99.90
3406;DHT22;10008;48.682;9.016;2023-05-21T00:16:21;15.70;99.90
3406;DHT22;10008;48.682;9.016;2023-05-21T00:18:47;15.70;99.90
3406;DHT22;10008;48.682;9.016;2023-05-21T00:21:15;15.70;99.90
3406;DHT22;10008;48.682;9.016;2023-05-21T00:23:42;15.60;99.90
3406;DHT22;10008;48.682;9.016;2023-05-21T00:26:08;15.40;99.90
3406;DHT22;10008;48.682;9.016;2023-05-21T00:28:34;15.40;99.90
3406;DHT22;10008;48.682;9.016;2023-05-21T00:31:00;15.30;99.90
3406;DHT22;10008;48.682;9.016;2023-05-21T00:33:26;15.20;99.90
3406;DHT22;10008;48.682;9.016;2023-05-21T00:35:54;15.10;99.90
3406;DHT22;10008;48.682;9.016;2023-05-21T00:38:20;15.00;99.90
3406;DHT22;10008;48.682;9.016;2023-05-21T00:40:46;15.00;99.90
3406;DHT22;10008;48.682;9.016;2023-05-21T00:43:12;14.90;99.90
3406;DHT22;10008;48.682;9.016;2023-05-21T00:45:40;14.80;99.90
3406;DHT22;10008;48.682;9.016;2023-05-21T00:48:07;14.70;99.90
3406;DHT22;10008;48.682;9.016;2023-05-21T00:50:33;14.70;99.90
3406;DHT22;10008;48.682;9.016;2023-05-21T00:53:00;14.70;99.90
3406;DHT22;10008;48.682;9.016;2023-05-21T00:55:26;14.70;99.90
3406;DHT22;10008;48.682;9.016;2023-05-21T00:57:52;14.70;99.90
3406;DHT22;10008;48.682;9.016;2023-05-21T01:00:18;14.60;99.90
3406;DHT22;10008;48.682;9.016;2023-05-21T01:02:45;14.60;99.90
3406;DHT22;10008;48.682;9.016;2023-05-21T01:05:11;14.70;99.90
3406;DHT22;10008;48.682;9.016;2023-05-21T01:07:38;14.60;99.90
3406;DHT22;10008;48.682;9.016;2023-05-21T01:10:08;14.60;99.90
3406;DHT22;10008;48.682;9.016;2023-05-21T01:12:34;14.50;99.90
3406;DHT22;10008;48.682;9.016;2023-05-21T01:15:03;14.40;99.90
3406;DHT22;10008;48.682;9.016;2023-05-21T01:17:30;14.30;99.90
3406;DHT22;10008;48.682;9.016;2023-05-21T01:19:59;14.30;99.90
3406;DHT22;10008;48.682;9.016;2023-05-21T01:22:27;14.20;99.90
3406;DHT22;10008;48.682;9.016;2023-05-21T01:24:56;14.30;99.90
3406;DHT22;10008;48.682;9.016;2023-05-21T01:27:22;14.30;99.90
3406;DHT22;10008;48.682;9.016;2023-05-21T01:29:49;14.30;99.90
3406;DHT22;10008;48.682;9.016;2023-05-21T01:32:36;14.30;99.90
3406;DHT22;10008;48.682;9.016;2023-05-21T01:35:15;14.30;99.90
3406;DHT22;10008;48.682;9.016;2023-05-21T01:37:47;14.30;99.90
3406;DHT22;10008;48.682;9.016;2023-05-21T01:40:35;14.30;99.90
3406;DHT22;10008;48.682;9.016;2023-05-21T01:43:05;14.20;99.90
3406;DHT22;10008;48.682;9.016;2023-05-21T01:45:32;14.10;99.90
3406;DHT22;10008;48.682;9.016;2023-05-21T01:47:59;14.00;99.90
3406;DHT22;10008;48.682;9.016;2023-05-21T01:50:25;13.90;99.90
3406;DHT22;10008;48.682;9.016;2023-05-21T01:52:53;13.90;99.90
3406;DHT22;10008;48.682;9.016;2023-05-21T01:55:19;13.80;99.90
3406;DHT22;10008;48.682;9.016;2023-05-21T01:57:55;13.80;99.90
3406;DHT22;10008;48.682;9.016;2023-05-21T02:00:21;13.70;99.90
3406;DHT22;10008;48.682;9.016;2023-05-21T02:02:48;13.80;99.90
3406;DHT22;10008;48.682;9.016;2023-05-21T02:05:14;13.70;99.90
3406;DHT22;10008;48.682;9.016;2023-05-21T02:07:40;13.70;99.90
3406;DHT22;10008;48.682;9.016;2023-05-21T02:10:06;13.70;99.90
3406;DHT22;10008;48.682;9.016;2023-05-21T02:12:32;13.70;99.90
3406;DHT22;10008;48.682;9.016;2023-05-21T02:14:59;13.70;99.90
3406;DHT22;10008;48.682;9.016;2023-05-21T02:17:25;13.70;99.90
3406;DHT22;10008;48.682;9.016;2023-05-21T02:19:51;13.70;99.90
3406;DHT22;10008;48.682;9.016;2023-05-21T02:22:17;13.60;99.90
3406;DHT22;10008;48.682;9.016;2023-05-21T02:24:43;13.60;99.90
3406;DHT22;10008;48.682;9.016;2023-05-21T02:27:08;13.60;99.90
3406;DHT22;10008;48.682;9.016;2023-05-21T02:29:38;13.70;99.90
3406;DHT22;10008;48.682;9.016;2023-05-21T02:32:04;13.70;99.90
3406;DHT22;10008;48.682;9.016;2023-05-21T02:34:30;13.70;99.90
3406;DHT22;10008;48.682;9.016;2023-05-21T02:36:57;13.80;99.90
3406;DHT22;10008;48.682;9.016;2023-05-21T02:39:23;13.80;99.90
3406;DHT22;10008;48.682;9.016;2023-05-21T02:41:49;13.70;99.90
3406;DHT22;10008;48.682;9.016;2023-05-21T02:44:15;13.70;99.90
3406;DHT22;10008;48.682;9.016;2023-05-21T02:46:43;13.60;99.90
3406;DHT22;10008;48.682;9.016;2023-05-21T02:49:09;13.60;99.90
3406;DHT22;10008;48.682;9.016;2023-05-21T02:51:35;13.60;99.90
3406;DHT22;10008;48.682;9.016;2023-05-21T02:54:01;13.60;99.90
3406;DHT22;10008;48.682;9.016;2023-05-21T02:56:26;13.50;99.90
3406;DHT22;10008;48.682;9.016;2023-05-21T02:58:52;13.60;99.90
3406;DHT22;10008;48.682;9.016;2023-05-21T03:01:19;13.50;99.90
3406;DHT22;10008;48.682;9.016;2023-05-21T03:03:44;13.40;99.90
3406;DHT22;10008;48.682;9.016;2023-05-21T03:06:11;13.40;99.90
3406;DHT22;10008;48.682;9.016;2023-05-21T03:08:36;13.40;99.90
3406;DHT22;10008;48.682;9.016;2023-05-21T03:11:03;13.40;99.90
3406;DHT22;10008;48.682;9.016;2023-05-21T03:13:29;13.30;99.90
3406;DHT22;10008;48.682;9.016;2023-05-21T03:15:55;13.30;99.90
3406;DHT22;10008;48.682;9.016;2023-05-21T03:18:21;13.30;99.90
3406;DHT22;10008;48.682;9.016;2023-05-21T03:20:47;13.20;99.90
3406;DHT22;10008;48.682;9.016;2023-05-21T03:23:13;13.20;99.90
3406;DHT22;10008;48.682;9.016;2023-05-21T03:25:40;13.20;99.90
3406;DHT22;10008;48.682;9.016;2023-05-21T03:28:06;13.20;99.90
3406;DHT22;10008;48.682;9.016;2023-05-21T03:30:43;13.10;99.90
3406;DHT22;10008;48.682;9.016;2023-05-21T03:33:30;13.10;99.90
3406;DHT22;10008;48.682;9.016;2023-05-21T03:35:56;13.10;99.90
3406;DHT22;10008;48.682;9.016;2023-05-21T03:38:24;13.10;99.90
3406;DHT22;10008;48.682;9.016;2023-05-21T03:40:49;13.10;99.90
3406;DHT22;10008;48.682;9.016;2023-05-21T03:43:16;13.10;99.90
3406;DHT22;10008;48.682;9.016;2023-05-21T03:45:41;13.10;99.90
3406;DHT22;10008;48.682;9.016;2023-05-21T03:48:25;13.00;99.90
3406;DHT22;10008;48.682;9.016;2023-05-21T03:50:51;13.00;99.90
3406;DHT22;10008;48.682;9.016;2023-05-21T03:53:17;13.00;99.90
3406;DHT22;10008;48.682;9.016;2023-05-21T03:55:43;13.00;99.90
3406;DHT22;10008;48.682;9.016;2023-05-21T03:58:09;12.90;99.90
3406;DHT22;10008;48.682;9.016;2023-05-21T04:00:38;13.00;99.90
3406;DHT22;10008;48.682;9.016;2023-05-21T04:03:05;12.90;99.90
3406;DHT22;10008;48.682;9.016;2023-05-21T04:05:33;12.90;99.90
3406;DHT22;10008;48.682;9.016;2023-05-21T04:07:59;13.00;99.90
3406;DHT22;10008;48.682;9.016;2023-05-21T04:10:25;13.00;99.90
3406;DHT22;10008;48.682;9.016;2023-05-21T04:12:51;13.00;99.90
3406;DHT22;10008;48.682;9.016;2023-05-21T04:15:18;13.00;99.90
3406;DHT22;10008;48.682;9.016;2023-05-21T04:17:44;13.00;99.90
3406;DHT22;10008;48.682;9.016;2023-05-21T04:20:12;13.10;99.90
3406;DHT22;10008;48.682;9.016;2023-05-21T04:22:39;13.10;99.90
3406;DHT22;10008;48.682;9.016;2023-05-21T04:25:05;13.10;99.90
3406;DHT22;10008;48.682;9.016;2023-05-21T04:27:35;13.10;99.90
3406;DHT22;10008;48.682;9.016;2023-05-21T04:30:02;13.10;99.90
3406;DHT22;10008;48.682;9.016;2023-05-21T04:32:29;13.20;99.90
3406;DHT22;10008;48.682;9.016;2023-05-21T04:34:56;13.10;99.90
3406;DHT22;10008;48.682;9.016;2023-05-21T04:37:22;13.20;99.90
3406;DHT22;10008;48.682;9.016;2023-05-21T04:39:51;13.40;99.90
3406;DHT22;10008;48.682;9.016;2023-05-21T04:42:18;13.40;99.90
3406;DHT22;10008;48.682;9.016;2023-05-21T04:44:43;13.50;99.90
3406;DHT22;10008;48.682;9.016;2023-05-21T04:47:09;13.40;99.90
3406;DHT22;10008;48.682;9.016;2023-05-21T04:49:36;13.50;99.90
3406;DHT22;10008;48.682;9.016;2023-05-21T04:52:02;13.40;99.90
3406;DHT22;10008;48.682;9.016;2023-05-21T04:54:28;13.50;99.90
3406;DHT22;10008;48.682;9.016;2023-05-21T04:56:54;13.60;99.90
3406;DHT22;10008;48.682;9.016;2023-05-21T04:59:20;13.60;99.90
3406;DHT22;10008;48.682;9.016;2023-05-21T05:01:47;13.70;99.90
3406;DHT22;10008;48.682;9.016;2023-05-21T05:04:13;13.70;99.90
3406;DHT22;10008;48.682;9.016;2023-05-21T05:06:38;13.80;99.90
3406;DHT22;10008;48.682;9.016;2023-05-21T05:09:04;13.70;99.90
3406;DHT22;10008;48.682;9.016;2023-05-21T05:11:30;13.80;99.90
3406;DHT22;10008;48.682;9.016;2023-05-21T05:13:56;13.80;99.90
3406;DHT22;10008;48.682;9.016;2023-05-21T05:16:22;13.80;99.90
3406;DHT22;10008;48.682;9.016;2023-05-21T05:18:51;13.90;99.90
3406;DHT22;10008;48.682;9.016;2023-05-21T05:21:17;13.90;99.90
3406;DHT22;10008;48.682;9.016;2023-05-21T05:23:43;14.00;99.90
3406;DHT22;10008;48.682;9.016;2023-05-21T05:26:12;14.00;99.90
3406;DHT22;10008;48.682;9.016;2023-05-21T05:28:38;14.10;99.90
3406;DHT22;10008;48.682;9.016;2023-05-21T05:31:04;14.10;99.90
3406;DHT22;10008;48.682;9.016;2023-05-21T05:33:31;14.20;99.90
3406;DHT22;10008;48.682;9.016;2023-05-21T05:35:57;14.30;99.90
3406;DHT22;10008;48.682;9.016;2023-05-21T05:38:23;14.40;99.90
3406;DHT22;10008;48.682;9.016;2023-05-21T05:40:49;14.50;99.90
3406;DHT22;10008;48.682;9.016;2023-05-21T05:43:15;14.60;99.90
3406;DHT22;10008;48.682;9.016;2023-05-21T05:45:41;14.60;99.90
3406;DHT22;10008;48.682;9.016;2023-05-21T05:48:11;14.70;99.90
3406;DHT22;10008;48.682;9.016;2023-05-21T05:50:37;15.90;99.90
3406;DHT22;10008;48.682;9.016;2023-05-21T05:53:03;14.90;99.90
3406;DHT22;10008;48.682;9.016;2023-05-21T05:55:28;14.90;99.90
3406;DHT22;10008;48.682;9.016;2023-05-21T05:57:54;15.10;99.90
3406;DHT22;10008;48.682;9.016;2023-05-21T06:00:20;15.20;99.90
3406;DHT22;10008;48.682;9.016;2023-05-21T06:02:48;15.30;99.90
3406;DHT22;10008;48.682;9.016;2023-05-21T06:05:14;15.60;99.90
3406;DHT22;10008;48.682;9.016;2023-05-21T06:07:40;15.90;99.90
3406;DHT22;10008;48.682;9.016;2023-05-21T06:10:06;16.00;99.90
3406;DHT22;10008;48.682;9.016;2023-05-21T06:12:33;16.20;99.90
3406;DHT22;10008;48.682;9.016;2023-05-21T06:14:59;16.30;99.90
3406;DHT22;10008;48.682;9.016;2023-05-21T06:17:26;16.50;99.90
3406;DHT22;10008;48.682;9.016;2023-05-21T06:19:53;16.70;99.90
3406;DHT22;10008;48.682;9.016;2023-05-21T06:22:19;16.90;99.90
3406;DHT22;10008;48.682;9.016;2023-05-21T06:24:44;16.90;99.90
3406;DHT22;10008;48.682;9.016;2023-05-21T06:27:11;17.00;99.90
3406;DHT22;10008;48.682;9.016;2023-05-21T06:29:37;17.10;99.90
3406;DHT22;10008;48.682;9.016;2023-05-21T06:32:03;17.30;99.90
3406;DHT22;10008;48.682;9.016;2023-05-21T06:34:28;17.40;99.90
3406;DHT22;10008;48.682;9.016;2023-05-21T06:36:54;17.70;99.90
3406;DHT22;10008;48.682;9.016;2023-05-21T06:39:20;18.20;99.90
3406;DHT22;10008;48.682;9.016;2023-05-21T06:41:47;18.70;99.90
3406;DHT22;10008;48.682;9.016;2023-05-21T06:44:38;19.00;99.90
3406;DHT22;10008;48.682;9.016;2023-05-21T06:47:12;19.30;99.90
3406;DHT22;10008;48.682;9.016;2023-05-21T06:49:38;19.40;99.90
3406;DHT22;10008;48.682;9.016;2023-05-21T06:52:04;19.50;99.90
3406;DHT22;10008;48.682;9.016;2023-05-21T06:54:30;19.60;99.90
3406;DHT22;10008;48.682;9.016;2023-05-21T06:56:56;19.80;99.90
3406;DHT22;10008;48.682;9.016;2023-05-21T06:59:21;20.00;99.90
3406;DHT22;10008;48.682;9.016;2023-05-21T07:01:47;20.20;99.90
3406;DHT22;10008;48.682;9.016;2023-05-21T07:04:13;20.30;99.90
3406;DHT22;10008;48.682;9.016;2023-05-21T07:06:40;20.40;99.90
3406;DHT22;10008;48.682;9.016;2023-05-21T07:09:07;20.30;99.90
3406;DHT22;10008;48.682;9.016;2023-05-21T07:11:34;20.00;99.90
3406;DHT22;10008;48.682;9.016;2023-05-21T07:14:02;20.20;99.90
3406;DHT22;10008;48.682;9.016;2023-05-21T07:16:30;20.40;99.90
3406;DHT22;10008;48.682;9.016;2023-05-21T07:18:57;20.50;99.90
3406;DHT22;10008;48.682;9.016;2023-05-21T07:21:23;20.40;99.90
3406;DHT22;10008;48.682;9.016;2023-05-21T07:23:50;20.90;99.90
3406;DHT22;10008;48.682;9.016;2023-05-21T07:26:17;21.50;99.90
3406;DHT22;10008;48.682;9.016;2023-05-21T07:28:43;22.10;99.90
3406;DHT22;10008;48.682;9.016;2023-05-21T07:31:09;22.60;99.90
3406;DHT22;10008;48.682;9.016;2023-05-21T07:33:40;23.00;99.90
3406;DHT22;10008;48.682;9.016;2023-05-21T07:36:08;24.50;99.90
3406;DHT22;10008;48.682;9.016;2023-05-21T07:38:34;25.30;98.60
3406;DHT22;10008;48.682;9.016;2023-05-21T07:41:00;25.70;97.00
3406;DHT22;10008;48.682;9.016;2023-05-21T07:43:25;26.30;95.90
3406;DHT22;10008;48.682;9.016;2023-05-21T07:45:51;26.70;94.10
3406;DHT22;10008;48.682;9.016;2023-05-21T07:48:17;27.30;92.60
3406;DHT22;10008;48.682;9.016;2023-05-21T07:50:52;27.30;90.80
3406;DHT22;10008;48.682;9.016;2023-05-21T07:53:18;26.90;90.90
3406;DHT22;10008;48.682;9.016;2023-05-21T07:55:45;26.00;91.50
3406;DHT22;10008;48.682;9.016;2023-05-21T07:58:18;26.40;91.80
3406;DHT22;10008;48.682;9.016;2023-05-21T08:00:45;26.70;90.10
3406;DHT22;10008;48.682;9.016;2023-05-21T08:03:16;26.80;90.80
3406;DHT22;10008;48.682;9.016;2023-05-21T08:05:46;27.50;89.00
3406;DHT22;10008;48.682;9.016;2023-05-21T08:08:19;28.60;86.90
3406;DHT22;10008;48.682;9.016;2023-05-21T08:10:48;29.20;84.30
3406;DHT22;10008;48.682;9.016;2023-05-21T08:13:15;28.70;81.90
3406;DHT22;10008;48.682;9.016;2023-05-21T08:15:41;29.10;85.60
3406;DHT22;10008;48.682;9.016;2023-05-21T08:18:07;29.30;82.20
3406;DHT22;10008;48.682;9.016;2023-05-21T08:20:34;29.70;80.70
3406;DHT22;10008;48.682;9.016;2023-05-21T08:23:00;29.30;81.10
3406;DHT22;10008;48.682;9.016;2023-05-21T08:25:28;29.20;82.40
3406;DHT22;10008;48.682;9.016;2023-05-21T08:27:55;29.30;82.20
3406;DHT22;10008;48.682;9.016;2023-05-21T08:30:21;29.70;81.00
3406;DHT22;10008;48.682;9.016;2023-05-21T08:32:47;30.10;78.80
3406;DHT22;10008;48.682;9.016;2023-05-21T08:35:16;28.80;81.60
3406;DHT22;10008;48.682;9.016;2023-05-21T08:38:05;28.20;80.60
3406;DHT22;10008;48.682;9.016;2023-05-21T08:40:40;28.10;79.00
3406;DHT22;10008;48.682;9.016;2023-05-21T08:43:06;27.50;80.40
3406;DHT22;10008;48.682;9.016;2023-05-21T08:45:43;27.90;79.90
3406;DHT22;10008;48.682;9.016;2023-05-21T08:48:10;28.10;80.50
3406;DHT22;10008;48.682;9.016;2023-05-21T08:50:40;28.40;80.80
3406;DHT22;10008;48.682;9.016;2023-05-21T08:53:14;28.90;79.10
3406;DHT22;10008;48.682;9.016;2023-05-21T08:55:40;29.40;77.20
3406;DHT22;10008;48.682;9.016;2023-05-21T08:58:07;29.90;74.60
3406;DHT22;10008;48.682;9.016;2023-05-21T09:00:34;30.20;72.50
3406;DHT22;10008;48.682;9.016;2023-05-21T09:03:00;30.30;72.30
3406;DHT22;10008;48.682;9.016;2023-05-21T09:05:33;30.30;74.20
3406;DHT22;10008;48.682;9.016;2023-05-21T09:08:04;30.70;73.10
3406;DHT22;10008;48.682;9.016;2023-05-21T09:10:54;30.80;72.20
3406;DHT22;10008;48.682;9.016;2023-05-21T09:13:25;31.30;71.60
3406;DHT22;10008;48.682;9.016;2023-05-21T09:15:51;31.70;69.90
3406;DHT22;10008;48.682;9.016;2023-05-21T09:18:18;31.40;67.90
3406;DHT22;10008;48.682;9.016;2023-05-21T09:20:54;31.70;68.00
3406;DHT22;10008;48.682;9.016;2023-05-21T09:23:21;31.90;66.40
3406;DHT22;10008;48.682;9.016;2023-05-21T09:25:48;31.70;66.90
3406;DHT22;10008;48.682;9.016;2023-05-21T09:28:25;31.70;67.30
3406;DHT22;10008;48.682;9.016;2023-05-21T09:30:51;31.90;69.10
3406;DHT22;10008;48.682;9.016;2023-05-21T09:33:28;31.60;69.90
3406;DHT22;10008;48.682;9.016;2023-05-21T09:35:54;31.40;68.70
3406;DHT22;10008;48.682;9.016;2023-05-21T09:38:32;31.40;67.10
3406;DHT22;10008;48.682;9.016;2023-05-21T09:41:03;30.60;67.40
3406;DHT22;10008;48.682;9.016;2023-05-21T09:43:30;30.90;68.10
3406;DHT22;10008;48.682;9.016;2023-05-21T09:45:56;31.30;66.10
3406;DHT22;10008;48.682;9.016;2023-05-21T09:48:39;30.90;68.80
3406;DHT22;10008;48.682;9.016;2023-05-21T09:51:19;30.90;68.60
3406;DHT22;10008;48.682;9.016;2023-05-21T09:53:50;31.10;67.70
3406;DHT22;10008;48.682;9.016;2023-05-21T09:56:26;31.10;66.50
3406;DHT22;10008;48.682;9.016;2023-05-21T09:59:00;31.00;67.90
3406;DHT22;10008;48.682;9.016;2023-05-21T10:01:30;31.00;68.90
3406;DHT22;10008;48.682;9.016;2023-05-21T10:03:58;30.90;66.70
3406;DHT22;10008;48.682;9.016;2023-05-21T10:06:26;30.70;69.00
3406;DHT22;10008;48.682;9.016;2023-05-21T10:08:54;30.40;69.00
3406;DHT22;10008;48.682;9.016;2023-05-21T10:11:25;30.20;69.20
3406;DHT22;10008;48.682;9.016;2023-05-21T10:14:01;30.10;69.60
3406;DHT22;10008;48.682;9.016;2023-05-21T10:16:29;30.00;70.20
3406;DHT22;10008;48.682;9.016;2023-05-21T10:18:57;29.80;69.70
3406;DHT22;10008;48.682;9.016;2023-05-21T10:21:24;29.70;69.90
3406;DHT22;10008;48.682;9.016;2023-05-21T10:23:50;30.00;69.50
3406;DHT22;10008;48.682;9.016;2023-05-21T10:26:18;30.30;69.70
3406;DHT22;10008;48.682;9.016;2023-05-21T10:28:47;30.60;69.50
3406;DHT22;10008;48.682;9.016;2023-05-21T10:31:13;31.10;68.10
3406;DHT22;10008;48.682;9.016;2023-05-21T10:33:40;32.00;68.80
3406;DHT22;10008;48.682;9.016;2023-05-21T10:36:07;32.30;66.50
3406;DHT22;10008;48.682;9.016;2023-05-21T10:38:33;32.60;64.80
3406;DHT22;10008;48.682;9.016;2023-05-21T10:41:00;33.40;63.50
3406;DHT22;10008;48.682;9.016;2023-05-21T10:55:12;33.60;58.90
3406;DHT22;10008;48.682;9.016;2023-05-21T10:58:01;32.40;61.90
3406;DHT22;10008;48.682;9.016;2023-05-21T11:00:30;33.00;63.60
3406;DHT22;10008;48.682;9.016;2023-05-21T11:02:58;33.60;60.10
3406;DHT22;10008;48.682;9.016;2023-05-21T11:08:29;33.50;59.00
3406;DHT22;10008;48.682;9.016;2023-05-21T11:10:58;33.20;60.70
3406;DHT22;10008;48.682;9.016;2023-05-21T11:13:28;33.50;62.40
3406;DHT22;10008;48.682;9.016;2023-05-21T11:23:50;34.50;57.60
3406;DHT22;10008;48.682;9.016;2023-05-21T11:26:17;34.10;58.40
3406;DHT22;10008;48.682;9.016;2023-05-21T11:28:43;34.40;60.10
3406;DHT22;10008;48.682;9.016;2023-05-21T11:31:24;33.80;59.10
3406;DHT22;10008;48.682;9.016;2023-05-21T11:34:31;33.50;59.60
3406;DHT22;10008;48.682;9.016;2023-05-21T11:39:42;32.60;61.40
3406;DHT22;10008;48.682;9.016;2023-05-21T11:42:08;32.60;60.30
3406;DHT22;10008;48.682;9.016;2023-05-21T11:47:11;32.40;60.60
3406;DHT22;10008;48.682;9.016;2023-05-21T11:49:37;32.40;59.30
3406;DHT22;10008;48.682;9.016;2023-05-21T11:52:05;32.20;59.40
3406;DHT22;10008;48.682;9.016;2023-05-21T11:54:32;31.40;60.50
3406;DHT22;10008;48.682;9.016;2023-05-21T11:57:06;31.50;62.00
3406;DHT22;10008;48.682;9.016;2023-05-21T11:59:32;31.60;60.20
3406;DHT22;10008;48.682;9.016;2023-05-21T12:01:59;31.80;61.90
3406;DHT22;10008;48.682;9.016;2023-05-21T12:04:31;31.70;58.90
3406;DHT22;10008;48.682;9.016;2023-05-21T12:07:08;31.20;59.20
3406;DHT22;10008;48.682;9.016;2023-05-21T12:09:40;31.20;61.90
3406;DHT22;10008;48.682;9.016;2023-05-21T12:12:07;31.40;60.90
3406;DHT22;10008;48.682;9.016;2023-05-21T12:14:37;31.40;60.50
3406;DHT22;10008;48.682;9.016;2023-05-21T12:17:03;30.60;60.50
3406;DHT22;10008;48.682;9.016;2023-05-21T12:19:33;30.80;60.70
3406;DHT22;10008;48.682;9.016;2023-05-21T12:22:03;31.00;60.90
3406;DHT22;10008;48.682;9.016;2023-05-21T12:24:30;31.10;62.50
3406;DHT22;10008;48.682;9.016;2023-05-21T12:26:57;31.10;61.20
3406;DHT22;10008;48.682;9.016;2023-05-21T12:29:33;30.80;59.90
3406;DHT22;10008;48.682;9.016;2023-05-21T12:32:01;30.40;62.70
3406;DHT22;10008;48.682;9.016;2023-05-21T12:34:37;30.30;62.30
3406;DHT22;10008;48.682;9.016;2023-05-21T12:37:04;30.30;61.70
3406;DHT22;10008;48.682;9.016;2023-05-21T12:39:39;30.10;62.90
3406;DHT22;10008;48.682;9.016;2023-05-21T12:42:05;30.00;63.40
3406;DHT22;10008;48.682;9.016;2023-05-21T12:44:31;29.60;64.60
3406;DHT22;10008;48.682;9.016;2023-05-21T12:46:57;29.60;64.10
3406;DHT22;10008;48.682;9.016;2023-05-21T12:49:40;29.40;63.90
3406;DHT22;10008;48.682;9.016;2023-05-21T12:52:10;28.80;64.30
3406;DHT22;10008;48.682;9.016;2023-05-21T12:54:38;28.50;67.40
3406;DHT22;10008;48.682;9.016;2023-05-21T12:57:25;28.70;69.00
3406;DHT22;10008;48.682;9.016;2023-05-21T12:59:53;28.80;64.70
3406;DHT22;10008;48.682;9.016;2023-05-21T13:02:25;28.70;65.30
3406;DHT22;10008;48.682;9.016;2023-05-21T13:04:58;28.50;65.50
3406;DHT22;10008;48.682;9.016;2023-05-21T13:07:25;28.40;66.20
3406;DHT22;10008;48.682;9.016;2023-05-21T13:09:52;28.30;67.30
3406;DHT22;10008;48.682;9.016;2023-05-21T13:12:22;28.20;68.10
3406;DHT22;10008;48.682;9.016;2023-05-21T13:14:52;28.20;67.20
3406;DHT22;10008;48.682;9.016;2023-05-21T13:17:19;28.00;66.40
3406;DHT22;10008;48.682;9.016;2023-05-21T13:22:32;27.30;68.00
3406;DHT22;10008;48.682;9.016;2023-05-21T13:24:59;27.30;69.60
3406;DHT22;10008;48.682;9.016;2023-05-21T13:27:25;27.30;68.10
3406;DHT22;10008;48.682;9.016;2023-05-21T13:29:50;27.10;70.30
3406;DHT22;10008;48.682;9.016;2023-05-21T13:32:16;27.00;70.10
3406;DHT22;10008;48.682;9.016;2023-05-21T13:34:43;27.00;72.50
3406;DHT22;10008;48.682;9.016;2023-05-21T13:37:09;27.10;72.70
3406;DHT22;10008;48.682;9.016;2023-05-21T13:39:34;27.20;69.50
3406;DHT22;10008;48.682;9.016;2023-05-21T13:42:00;27.20;70.50
3406;DHT22;10008;48.682;9.016;2023-05-21T13:44:26;27.30;70.20
3406;DHT22;10008;48.682;9.016;2023-05-21T13:46:52;27.20;69.80
3406;DHT22;10008;48.682;9.016;2023-05-21T13:49:18;27.10;70.10
3406;DHT22;10008;48.682;9.016;2023-05-21T13:51:43;27.00;73.70
3406;DHT22;10008;48.682;9.016;2023-05-21T13:54:09;26.80;72.10
3406;DHT22;10008;48.682;9.016;2023-05-21T13:56:35;26.70;69.50
3406;DHT22;10008;48.682;9.016;2023-05-21T13:59:01;26.50;70.50
3406;DHT22;10008;48.682;9.016;2023-05-21T14:01:26;26.40;70.60
3406;DHT22;10008;48.682;9.016;2023-05-21T14:03:52;26.20;69.50
3406;DHT22;10008;48.682;9.016;2023-05-21T14:06:18;26.10;70.60
3406;DHT22;10008;48.682;9.016;2023-05-21T14:08:43;25.90;69.80
3406;DHT22;10008;48.682;9.016;2023-05-21T14:11:09;25.60;72.30
3406;DHT22;10008;48.682;9.016;2023-05-21T14:13:35;25.70;70.20
3406;DHT22;10008;48.682;9.016;2023-05-21T14:16:00;25.70;70.80
3406;DHT22;10008;48.682;9.016;2023-05-21T14:18:26;25.70;69.20
3406;DHT22;10008;48.682;9.016;2023-05-21T14:20:52;25.80;69.80
3406;DHT22;10008;48.682;9.016;2023-05-21T14:23:18;25.70;72.00
3406;DHT22;10008;48.682;9.016;2023-05-21T14:25:44;25.70;70.10
3406;DHT22;10008;48.682;9.016;2023-05-21T14:28:10;25.70;69.60
3406;DHT22;10008;48.682;9.016;2023-05-21T14:30:35;25.80;69.70
3406;DHT22;10008;48.682;9.016;2023-05-21T14:33:01;25.90;69.60
3406;DHT22;10008;48.682;9.016;2023-05-21T14:35:27;26.00;71.10
3406;DHT22;10008;48.682;9.016;2023-05-21T14:37:53;26.00;68.70
3406;DHT22;10008;48.682;9.016;2023-05-21T14:40:19;25.90;69.40
3406;DHT22;10008;48.682;9.016;2023-05-21T14:42:44;25.80;70.30
3406;DHT22;10008;48.682;9.016;2023-05-21T14:45:10;25.90;70.80
3406;DHT22;10008;48.682;9.016;2023-05-21T14:47:36;26.00;68.60
3406;DHT22;10008;48.682;9.016;2023-05-21T14:50:02;26.10;69.30
3406;DHT22;10008;48.682;9.016;2023-05-21T14:52:27;26.40;71.40
3406;DHT22;10008;48.682;9.016;2023-05-21T14:54:53;26.50;70.10
3406;DHT22;10008;48.682;9.016;2023-05-21T14:57:19;26.70;68.60
3406;DHT22;10008;48.682;9.016;2023-05-21T14:59:45;26.80;68.70
3406;DHT22;10008;48.682;9.016;2023-05-21T15:02:12;26.90;66.90
3406;DHT22;10008;48.682;9.016;2023-05-21T15:04:37;27.00;69.30
3406;DHT22;10008;48.682;9.016;2023-05-21T15:07:03;27.20;68.90
3406;DHT22;10008;48.682;9.016;2023-05-21T15:09:29;27.20;67.80
3406;DHT22;10008;48.682;9.016;2023-05-21T15:11:54;27.50;68.20
3406;DHT22;10008;48.682;9.016;2023-05-21T15:14:20;27.90;68.40
3406;DHT22;10008;48.682;9.016;2023-05-21T15:16:46;27.70;64.10
3406;DHT22;10008;48.682;9.016;2023-05-21T15:19:12;27.40;64.50
3406;DHT22;10008;48.682;9.016;2023-05-21T15:21:37;27.80;67.00
3406;DHT22;10008;48.682;9.016;2023-05-21T15:24:03;28.10;68.00
3406;DHT22;10008;48.682;9.016;2023-05-21T15:26:29;28.30;63.80
3406;DHT22;10008;48.682;9.016;2023-05-21T15:28:55;28.40;61.90
3406;DHT22;10008;48.682;9.016;2023-05-21T15:31:21;28.30;63.60
3406;DHT22;10008;48.682;9.016;2023-05-21T15:33:47;28.20;60.80
3406;DHT22;10008;48.682;9.016;2023-05-21T15:36:13;27.90;61.20
3406;DHT22;10008;48.682;9.016;2023-05-21T15:38:39;27.80;61.40
3406;DHT22;10008;48.682;9.016;2023-05-21T15:41:04;27.80;62.70
3406;DHT22;10008;48.682;9.016;2023-05-21T15:43:31;27.90;60.20
3406;DHT22;10008;48.682;9.016;2023-05-21T15:45:57;28.00;60.60
3406;DHT22;10008;48.682;9.016;2023-05-21T15:48:23;28.10;61.90
3406;DHT22;10008;48.682;9.016;2023-05-21T15:50:49;28.00;60.30
3406;DHT22;10008;48.682;9.016;2023-05-21T15:53:15;28.00;60.30
3406;DHT22;10008;48.682;9.016;2023-05-21T15:55:41;27.90;58.70
3406;DHT22;10008;48.682;9.016;2023-05-21T15:58:06;27.70;59.20
3406;DHT22;10008;48.682;9.016;2023-05-21T16:00:33;27.60;61.00
3406;DHT22;10008;48.682;9.016;2023-05-21T16:02:58;27.80;60.50
3406;DHT22;10008;48.682;9.016;2023-05-21T16:05:25;27.90;59.60
3406;DHT22;10008;48.682;9.016;2023-05-21T16:07:50;28.00;58.70
3406;DHT22;10008;48.682;9.016;2023-05-21T16:10:16;27.70;57.70
3406;DHT22;10008;48.682;9.016;2023-05-21T16:12:42;27.50;59.40
3406;DHT22;10008;48.682;9.016;2023-05-21T16:15:08;27.70;58.30
3406;DHT22;10008;48.682;9.016;2023-05-21T16:17:34;27.70;61.60
3406;DHT22;10008;48.682;9.016;2023-05-21T16:19:59;27.40;57.00